Village Mills, Texas
Current Conditions -  °F | °C
As of 2:35 AM on Friday 24 Oct 2014 (Local Time) from KBMT Reporting Station
Clear Clear  
Wind Chill: 52°   Ceiling: Unl
Heat Index: 52°   Visibility: 10mi
Dew Point: 51°   Wind: 0mph
Humidity: 98%   Direction: NA
Pressure: 30.13"   Gusts: NA
Location:  30.49°N, 94.4°W
Report Text: KBMT 240735Z AUTO 00000KT 10SM CLR 11/11 A3013 RMK AO2 T01100107
Loading
Personal Weather Stations






























Interactive Weather Map
Tropical Storm Tracking
New forecast layout! Learn more

10-Day Weather Forecast

Advertisements
Track Severe Weather on mobile